sensor_id;sensor_type;location;lat;lon;timestamp;P1;durP1;ratioP1;P2;durP2;ratioP2
33824;SDS011;20127;48.962;8.342;2023-11-18T00:00:48;32.33;;;20.30;;
33824;SDS011;20127;48.962;8.342;2023-11-18T00:03:52;47.63;;;23.42;;
33824;SDS011;20127;48.962;8.342;2023-11-18T00:06:55;43.33;;;22.00;;
33824;SDS011;20127;48.962;8.342;2023-11-18T00:09:58;34.38;;;19.98;;
33824;SDS011;20127;48.962;8.342;2023-11-18T00:13:00;34.22;;;22.33;;
33824;SDS011;20127;48.962;8.342;2023-11-18T00:16:04;38.72;;;22.15;;
33824;SDS011;20127;48.962;8.342;2023-11-18T00:19:07;38.70;;;21.50;;
33824;SDS011;20127;48.962;8.342;2023-11-18T00:22:09;33.78;;;20.10;;
33824;SDS011;20127;48.962;8.342;2023-11-18T00:25:11;42.03;;;22.33;;
33824;SDS011;20127;48.962;8.342;2023-11-18T00:28:14;36.95;;;22.33;;
33824;SDS011;20127;48.962;8.342;2023-11-18T00:31:16;38.78;;;22.73;;
33824;SDS011;20127;48.962;8.342;2023-11-18T00:34:19;39.63;;;21.70;;
33824;SDS011;20127;48.962;8.342;2023-11-18T00:37:21;31.52;;;20.30;;
33824;SDS011;20127;48.962;8.342;2023-11-18T00:40:22;33.15;;;19.85;;
33824;SDS011;20127;48.962;8.342;2023-11-18T00:43:24;34.13;;;19.45;;
33824;SDS011;20127;48.962;8.342;2023-11-18T00:46:26;36.85;;;20.75;;
33824;SDS011;20127;48.962;8.342;2023-11-18T00:49:29;29.63;;;19.98;;
33824;SDS011;20127;48.962;8.342;2023-11-18T00:52:31;34.28;;;20.27;;
33824;SDS011;20127;48.962;8.342;2023-11-18T00:55:32;37.45;;;20.38;;
33824;SDS011;20127;48.962;8.342;2023-11-18T00:58:34;30.58;;;19.27;;
33824;SDS011;20127;48.962;8.342;2023-11-18T01:01:40;40.90;;;19.73;;
33824;SDS011;20127;48.962;8.342;2023-11-18T01:04:43;34.22;;;19.00;;
33824;SDS011;20127;48.962;8.342;2023-11-18T01:07:45;30.90;;;18.55;;
33824;SDS011;20127;48.962;8.342;2023-11-18T01:10:47;25.95;;;17.27;;
33824;SDS011;20127;48.962;8.342;2023-11-18T01:13:49;26.60;;;17.00;;
33824;SDS011;20127;48.962;8.342;2023-11-18T01:16:51;25.45;;;16.05;;
33824;SDS011;20127;48.962;8.342;2023-11-18T01:19:54;26.83;;;16.50;;
33824;SDS011;20127;48.962;8.342;2023-11-18T01:22:56;26.85;;;16.50;;
33824;SDS011;20127;48.962;8.342;2023-11-18T01:25:57;23.80;;;15.68;;
33824;SDS011;20127;48.962;8.342;2023-11-18T01:29:00;24.75;;;16.40;;
33824;SDS011;20127;48.962;8.342;2023-11-18T01:32:01;23.15;;;15.45;;
33824;SDS011;20127;48.962;8.342;2023-11-18T01:35:10;25.13;;;16.00;;
33824;SDS011;20127;48.962;8.342;2023-11-18T01:38:12;23.05;;;14.82;;
33824;SDS011;20127;48.962;8.342;2023-11-18T01:41:14;23.65;;;14.98;;
33824;SDS011;20127;48.962;8.342;2023-11-18T01:44:15;21.25;;;14.25;;
33824;SDS011;20127;48.962;8.342;2023-11-18T01:47:19;23.88;;;14.55;;
33824;SDS011;20127;48.962;8.342;2023-11-18T01:50:23;25.70;;;15.32;;
33824;SDS011;20127;48.962;8.342;2023-11-18T01:53:24;19.17;;;14.18;;
33824;SDS011;20127;48.962;8.342;2023-11-18T01:56:27;26.20;;;15.35;;
33824;SDS011;20127;48.962;8.342;2023-11-18T01:59:29;23.40;;;14.18;;
33824;SDS011;20127;48.962;8.342;2023-11-18T02:02:31;21.17;;;15.75;;
33824;SDS011;20127;48.962;8.342;2023-11-18T02:05:36;23.27;;;15.45;;
33824;SDS011;20127;48.962;8.342;2023-11-18T02:08:38;22.35;;;15.63;;
33824;SDS011;20127;48.962;8.342;2023-11-18T02:11:43;25.95;;;16.80;;
33824;SDS011;20127;48.962;8.342;2023-11-18T02:14:49;26.30;;;16.90;;
33824;SDS011;20127;48.962;8.342;2023-11-18T02:17:53;30.52;;;17.55;;
33824;SDS011;20127;48.962;8.342;2023-11-18T02:20:59;30.90;;;18.98;;
33824;SDS011;20127;48.962;8.342;2023-11-18T02:24:01;31.85;;;18.40;;
33824;SDS011;20127;48.962;8.342;2023-11-18T02:27:06;24.20;;;18.02;;
33824;SDS011;20127;48.962;8.342;2023-11-18T02:30:11;30.20;;;19.80;;
33824;SDS011;20127;48.962;8.342;2023-11-18T02:33:18;34.03;;;20.20;;
33824;SDS011;20127;48.962;8.342;2023-11-18T02:36:23;31.45;;;18.77;;
33824;SDS011;20127;48.962;8.342;2023-11-18T02:39:38;28.52;;;20.02;;
33824;SDS011;20127;48.962;8.342;2023-11-18T02:42:44;28.65;;;18.48;;
33824;SDS011;20127;48.962;8.342;2023-11-18T02:45:48;28.70;;;19.42;;
33824;SDS011;20127;48.962;8.342;2023-11-18T02:48:51;28.52;;;19.15;;
33824;SDS011;20127;48.962;8.342;2023-11-18T02:51:54;30.52;;;19.00;;
33824;SDS011;20127;48.962;8.342;2023-11-18T02:54:55;30.77;;;20.00;;
33824;SDS011;20127;48.962;8.342;2023-11-18T02:57:58;32.25;;;19.15;;
33824;SDS011;20127;48.962;8.342;2023-11-18T03:01:00;34.65;;;19.45;;
33824;SDS011;20127;48.962;8.342;2023-11-18T03:04:04;33.47;;;21.05;;
33824;SDS011;20127;48.962;8.342;2023-11-18T03:07:06;31.33;;;18.83;;
33824;SDS011;20127;48.962;8.342;2023-11-18T03:10:08;33.13;;;19.95;;
33824;SDS011;20127;48.962;8.342;2023-11-18T03:13:13;31.23;;;18.58;;
33824;SDS011;20127;48.962;8.342;2023-11-18T03:16:15;29.88;;;20.08;;
33824;SDS011;20127;48.962;8.342;2023-11-18T03:19:17;44.28;;;20.80;;
33824;SDS011;20127;48.962;8.342;2023-11-18T03:22:19;32.10;;;19.63;;
33824;SDS011;20127;48.962;8.342;2023-11-18T03:25:21;32.70;;;20.02;;
33824;SDS011;20127;48.962;8.342;2023-11-18T03:28:24;36.40;;;18.65;;
33824;SDS011;20127;48.962;8.342;2023-11-18T03:31:26;32.35;;;20.42;;
33824;SDS011;20127;48.962;8.342;2023-11-18T03:34:29;35.50;;;21.52;;
33824;SDS011;20127;48.962;8.342;2023-11-18T03:37:30;36.08;;;20.30;;
33824;SDS011;20127;48.962;8.342;2023-11-18T03:40:32;34.53;;;21.10;;
33824;SDS011;20127;48.962;8.342;2023-11-18T03:43:36;30.92;;;17.65;;
33824;SDS011;20127;48.962;8.342;2023-11-18T03:46:38;34.85;;;20.45;;
33824;SDS011;20127;48.962;8.342;2023-11-18T03:49:41;32.08;;;21.00;;
33824;SDS011;20127;48.962;8.342;2023-11-18T03:52:43;36.08;;;20.10;;
33824;SDS011;20127;48.962;8.342;2023-11-18T03:55:44;40.63;;;21.65;;
33824;SDS011;20127;48.962;8.342;2023-11-18T03:58:47;40.65;;;20.13;;
33824;SDS011;20127;48.962;8.342;2023-11-18T04:01:49;38.65;;;21.27;;
33824;SDS011;20127;48.962;8.342;2023-11-18T04:04:51;35.60;;;21.65;;
33824;SDS011;20127;48.962;8.342;2023-11-18T04:07:53;39.75;;;21.35;;
33824;SDS011;20127;48.962;8.342;2023-11-18T04:10:54;42.55;;;21.70;;
33824;SDS011;20127;48.962;8.342;2023-11-18T04:13:58;37.80;;;21.55;;
33824;SDS011;20127;48.962;8.342;2023-11-18T04:16:59;50.97;;;21.85;;
33824;SDS011;20127;48.962;8.342;2023-11-18T04:20:01;41.40;;;20.90;;
33824;SDS011;20127;48.962;8.342;2023-11-18T04:23:05;38.42;;;19.80;;
33824;SDS011;20127;48.962;8.342;2023-11-18T04:26:07;43.42;;;21.30;;
33824;SDS011;20127;48.962;8.342;2023-11-18T04:29:11;49.25;;;23.85;;
33824;SDS011;20127;48.962;8.342;2023-11-18T04:32:12;51.75;;;22.38;;
33824;SDS011;20127;48.962;8.342;2023-11-18T04:35:14;41.08;;;20.20;;
33824;SDS011;20127;48.962;8.342;2023-11-18T04:38:17;49.85;;;21.67;;
33824;SDS011;20127;48.962;8.342;2023-11-18T04:41:19;49.75;;;23.13;;
33824;SDS011;20127;48.962;8.342;2023-11-18T04:44:22;56.38;;;25.30;;
33824;SDS011;20127;48.962;8.342;2023-11-18T04:47:23;57.17;;;26.98;;
33824;SDS011;20127;48.962;8.342;2023-11-18T04:50:27;51.05;;;23.40;;
33824;SDS011;20127;48.962;8.342;2023-11-18T04:53:28;50.88;;;24.05;;
33824;SDS011;20127;48.962;8.342;2023-11-18T04:56:31;60.13;;;27.30;;
33824;SDS011;20127;48.962;8.342;2023-11-18T04:59:36;51.72;;;24.38;;
33824;SDS011;20127;48.962;8.342;2023-11-18T05:02:38;47.75;;;24.23;;
33824;SDS011;20127;48.962;8.342;2023-11-18T05:05:40;59.47;;;28.25;;
33824;SDS011;20127;48.962;8.342;2023-11-18T05:08:42;52.97;;;25.38;;
33824;SDS011;20127;48.962;8.342;2023-11-18T05:11:43;60.15;;;26.83;;
33824;SDS011;20127;48.962;8.342;2023-11-18T05:14:47;59.15;;;29.20;;
33824;SDS011;20127;48.962;8.342;2023-11-18T05:17:49;67.78;;;27.33;;
33824;SDS011;20127;48.962;8.342;2023-11-18T05:20:51;63.60;;;28.98;;
33824;SDS011;20127;48.962;8.342;2023-11-18T05:23:54;58.50;;;28.70;;
33824;SDS011;20127;48.962;8.342;2023-11-18T05:26:56;74.80;;;31.17;;
33824;SDS011;20127;48.962;8.342;2023-11-18T05:30:03;68.80;;;29.30;;
33824;SDS011;20127;48.962;8.342;2023-11-18T05:33:05;65.70;;;29.13;;
33824;SDS011;20127;48.962;8.342;2023-11-18T05:36:07;63.90;;;29.50;;
33824;SDS011;20127;48.962;8.342;2023-11-18T05:39:11;58.25;;;29.58;;
33824;SDS011;20127;48.962;8.342;2023-11-18T05:42:14;56.60;;;27.20;;
33824;SDS011;20127;48.962;8.342;2023-11-18T05:45:18;61.42;;;30.00;;
33824;SDS011;20127;48.962;8.342;2023-11-18T05:48:27;62.08;;;29.17;;
33824;SDS011;20127;48.962;8.342;2023-11-18T05:51:29;66.60;;;28.02;;
33824;SDS011;20127;48.962;8.342;2023-11-18T05:54:31;60.50;;;28.65;;
33824;SDS011;20127;48.962;8.342;2023-11-18T05:57:33;58.53;;;28.20;;
33824;SDS011;20127;48.962;8.342;2023-11-18T06:00:37;59.88;;;27.98;;
33824;SDS011;20127;48.962;8.342;2023-11-18T06:03:39;59.85;;;26.45;;
33824;SDS011;20127;48.962;8.342;2023-11-18T06:06:42;56.30;;;26.80;;
33824;SDS011;20127;48.962;8.342;2023-11-18T06:09:44;56.63;;;26.27;;
33824;SDS011;20127;48.962;8.342;2023-11-18T06:12:46;54.65;;;28.67;;
33824;SDS011;20127;48.962;8.342;2023-11-18T06:15:49;66.78;;;29.02;;
33824;SDS011;20127;48.962;8.342;2023-11-18T06:18:52;61.25;;;29.40;;
33824;SDS011;20127;48.962;8.342;2023-11-18T06:21:54;65.05;;;25.13;;
33824;SDS011;20127;48.962;8.342;2023-11-18T06:24:56;62.97;;;25.05;;
33824;SDS011;20127;48.962;8.342;2023-11-18T06:27:58;58.42;;;26.63;;
33824;SDS011;20127;48.962;8.342;2023-11-18T06:31:01;65.55;;;28.48;;
33824;SDS011;20127;48.962;8.342;2023-11-18T06:34:03;66.22;;;26.55;;
33824;SDS011;20127;48.962;8.342;2023-11-18T06:37:04;70.03;;;31.17;;
33824;SDS011;20127;48.962;8.342;2023-11-18T06:40:07;65.30;;;28.58;;
33824;SDS011;20127;48.962;8.342;2023-11-18T06:43:16;70.45;;;29.88;;
33824;SDS011;20127;48.962;8.342;2023-11-18T06:46:20;72.18;;;31.30;;
33824;SDS011;20127;48.962;8.342;2023-11-18T06:49:22;64.82;;;29.85;;
33824;SDS011;20127;48.962;8.342;2023-11-18T06:52:25;72.93;;;29.50;;
33824;SDS011;20127;48.962;8.342;2023-11-18T06:55:28;78.15;;;29.38;;
33824;SDS011;20127;48.962;8.342;2023-11-18T06:58:29;79.05;;;35.13;;
33824;SDS011;20127;48.962;8.342;2023-11-18T07:01:33;68.85;;;30.13;;
33824;SDS011;20127;48.962;8.342;2023-11-18T07:04:35;70.68;;;31.60;;
33824;SDS011;20127;48.962;8.342;2023-11-18T07:07:38;63.15;;;30.73;;
33824;SDS011;20127;48.962;8.342;2023-11-18T07:10:40;64.60;;;28.25;;
33824;SDS011;20127;48.962;8.342;2023-11-18T07:13:42;54.22;;;26.88;;
33824;SDS011;20127;48.962;8.342;2023-11-18T07:16:45;65.63;;;25.65;;
33824;SDS011;20127;48.962;8.342;2023-11-18T07:19:46;57.83;;;27.05;;
33824;SDS011;20127;48.962;8.342;2023-11-18T07:22:49;59.03;;;25.77;;
33824;SDS011;20127;48.962;8.342;2023-11-18T07:25:51;275.13;;;118.88;;
33824;SDS011;20127;48.962;8.342;2023-11-18T07:28:53;165.82;;;76.20;;
33824;SDS011;20127;48.962;8.342;2023-11-18T07:31:57;92.28;;;42.63;;
33824;SDS011;20127;48.962;8.342;2023-11-18T07:34:59;71.53;;;31.83;;
33824;SDS011;20127;48.962;8.342;2023-11-18T07:38:01;57.65;;;25.15;;
33824;SDS011;20127;48.962;8.342;2023-11-18T07:41:03;54.97;;;24.45;;
33824;SDS011;20127;48.962;8.342;2023-11-18T07:44:08;51.85;;;23.65;;
33824;SDS011;20127;48.962;8.342;2023-11-18T07:47:14;76.80;;;26.67;;
33824;SDS011;20127;48.962;8.342;2023-11-18T07:50:16;92.68;;;25.17;;
33824;SDS011;20127;48.962;8.342;2023-11-18T07:53:19;94.07;;;27.42;;
33824;SDS011;20127;48.962;8.342;2023-11-18T07:56:21;65.00;;;23.63;;
33824;SDS011;20127;48.962;8.342;2023-11-18T07:59:23;54.75;;;21.52;;
33824;SDS011;20127;48.962;8.342;2023-11-18T08:02:26;60.65;;;21.45;;
33824;SDS011;20127;48.962;8.342;2023-11-18T08:05:28;63.20;;;23.33;;
33824;SDS011;20127;48.962;8.342;2023-11-18T08:08:31;76.18;;;26.08;;
33824;SDS011;20127;48.962;8.342;2023-11-18T08:11:33;58.58;;;21.35;;
33824;SDS011;20127;48.962;8.342;2023-11-18T08:14:35;59.35;;;24.67;;
33824;SDS011;20127;48.962;8.342;2023-11-18T08:17:38;58.53;;;23.38;;
33824;SDS011;20127;48.962;8.342;2023-11-18T08:20:40;53.08;;;24.02;;
33824;SDS011;20127;48.962;8.342;2023-11-18T08:23:43;58.33;;;28.23;;
33824;SDS011;20127;48.962;8.342;2023-11-18T08:26:45;46.25;;;24.27;;
33824;SDS011;20127;48.962;8.342;2023-11-18T08:29:47;55.85;;;22.83;;
33824;SDS011;20127;48.962;8.342;2023-11-18T08:32:50;43.47;;;20.52;;
33824;SDS011;20127;48.962;8.342;2023-11-18T08:35:52;45.63;;;19.77;;
33824;SDS011;20127;48.962;8.342;2023-11-18T08:38:54;42.03;;;20.25;;
33824;SDS011;20127;48.962;8.342;2023-11-18T08:41:57;43.53;;;18.17;;
33824;SDS011;20127;48.962;8.342;2023-11-18T08:44:59;39.47;;;17.42;;
33824;SDS011;20127;48.962;8.342;2023-11-18T08:48:02;36.40;;;17.55;;
33824;SDS011;20127;48.962;8.342;2023-11-18T08:51:07;34.40;;;17.52;;
33824;SDS011;20127;48.962;8.342;2023-11-18T08:54:09;39.53;;;17.65;;
33824;SDS011;20127;48.962;8.342;2023-11-18T08:57:22;31.15;;;15.50;;
33824;SDS011;20127;48.962;8.342;2023-11-18T09:00:25;28.40;;;15.95;;
33824;SDS011;20127;48.962;8.342;2023-11-18T09:03:52;31.80;;;16.42;;
33824;SDS011;20127;48.962;8.342;2023-11-18T09:06:54;32.97;;;18.75;;
33824;SDS011;20127;48.962;8.342;2023-11-18T09:10:00;31.85;;;18.98;;
33824;SDS011;20127;48.962;8.342;2023-11-18T09:13:02;25.55;;;15.88;;
33824;SDS011;20127;48.962;8.342;2023-11-18T09:16:04;26.95;;;15.48;;
33824;SDS011;20127;48.962;8.342;2023-11-18T09:19:10;32.38;;;16.42;;
33824;SDS011;20127;48.962;8.342;2023-11-18T09:22:12;25.05;;;14.05;;
33824;SDS011;20127;48.962;8.342;2023-11-18T09:25:15;22.90;;;13.82;;
33824;SDS011;20127;48.962;8.342;2023-11-18T09:28:17;25.13;;;14.80;;
33824;SDS011;20127;48.962;8.342;2023-11-18T09:31:20;27.33;;;15.85;;
33824;SDS011;20127;48.962;8.342;2023-11-18T09:34:23;28.73;;;15.77;;
33824;SDS011;20127;48.962;8.342;2023-11-18T09:37:33;29.13;;;22.20;;
33824;SDS011;20127;48.962;8.342;2023-11-18T09:40:34;21.48;;;14.02;;
33824;SDS011;20127;48.962;8.342;2023-11-18T09:43:43;20.15;;;13.93;;
33824;SDS011;20127;48.962;8.342;2023-11-18T09:46:46;19.70;;;13.48;;
33824;SDS011;20127;48.962;8.342;2023-11-18T09:49:58;14.85;;;11.60;;
33824;SDS011;20127;48.962;8.342;2023-11-18T09:53:05;20.77;;;10.60;;
33824;SDS011;20127;48.962;8.342;2023-11-18T09:56:12;16.07;;;10.17;;
33824;SDS011;20127;48.962;8.342;2023-11-18T09:59:29;19.75;;;12.23;;
33824;SDS011;20127;48.962;8.342;2023-11-18T10:02:35;12.07;;;10.63;;
33824;SDS011;20127;48.962;8.342;2023-11-18T10:05:41;16.00;;;10.50;;
33824;SDS011;20127;48.962;8.342;2023-11-18T10:08:43;14.23;;;8.52;;
33824;SDS011;20127;48.962;8.342;2023-11-18T10:11:47;10.65;;;8.32;;
33824;SDS011;20127;48.962;8.342;2023-11-18T10:14:49;8.90;;;7.57;;
33824;SDS011;20127;48.962;8.342;2023-11-18T10:17:52;10.18;;;8.52;;
33824;SDS011;20127;48.962;8.342;2023-11-18T10:21:01;10.32;;;6.93;;
33824;SDS011;20127;48.962;8.342;2023-11-18T10:24:04;8.35;;;7.32;;
33824;SDS011;20127;48.962;8.342;2023-11-18T10:27:10;9.40;;;7.75;;
33824;SDS011;20127;48.962;8.342;2023-11-18T10:30:12;7.60;;;6.15;;
33824;SDS011;20127;48.962;8.342;2023-11-18T10:33:18;6.38;;;5.75;;
33824;SDS011;20127;48.962;8.342;2023-11-18T10:36:23;7.65;;;5.80;;
33824;SDS011;20127;48.962;8.342;2023-11-18T10:39:27;7.32;;;5.25;;
33824;SDS011;20127;48.962;8.342;2023-11-18T10:42:31;25.10;;;22.60;;
33824;SDS011;20127;48.962;8.342;2023-11-18T10:45:32;9.27;;;8.43;;
33824;SDS011;20127;48.962;8.342;2023-11-18T10:48:35;6.75;;;4.75;;
33824;SDS011;20127;48.962;8.342;2023-11-18T10:51:39;6.55;;;4.60;;
33824;SDS011;20127;48.962;8.342;2023-11-18T10:54:49;8.98;;;5.78;;
33824;SDS011;20127;48.962;8.342;2023-11-18T10:57:54;8.63;;;5.03;;
33824;SDS011;20127;48.962;8.342;2023-11-18T11:00:56;6.82;;;4.85;;
33824;SDS011;20127;48.962;8.342;2023-11-18T11:04:00;6.15;;;5.18;;
33824;SDS011;20127;48.962;8.342;2023-11-18T11:07:05;7.68;;;5.30;;
33824;SDS011;20127;48.962;8.342;2023-11-18T11:10:07;6.50;;;4.25;;
33824;SDS011;20127;48.962;8.342;2023-11-18T11:13:10;7.00;;;5.45;;
33824;SDS011;20127;48.962;8.342;2023-11-18T11:16:16;5.97;;;4.20;;
33824;SDS011;20127;48.962;8.342;2023-11-18T11:19:20;7.65;;;4.00;;
33824;SDS011;20127;48.962;8.342;2023-11-18T11:22:28;5.45;;;4.60;;
33824;SDS011;20127;48.962;8.342;2023-11-18T11:25:50;12.85;;;4.30;;
33824;SDS011;20127;48.962;8.342;2023-11-18T11:29:01;5.97;;;5.03;;
33824;SDS011;20127;48.962;8.342;2023-11-18T11:32:11;6.10;;;5.10;;
33824;SDS011;20127;48.962;8.342;2023-11-18T11:35:22;7.15;;;4.40;;
33824;SDS011;20127;48.962;8.342;2023-11-18T11:38:29;8.38;;;4.50;;
33824;SDS011;20127;48.962;8.342;2023-11-18T11:41:35;5.60;;;4.40;;
33824;SDS011;20127;48.962;8.342;2023-11-18T11:44:39;9.73;;;4.78;;
33824;SDS011;20127;48.962;8.342;2023-11-18T11:47:42;5.38;;;4.45;;
33824;SDS011;20127;48.962;8.342;2023-11-18T11:50:54;5.40;;;4.13;;
33824;SDS011;20127;48.962;8.342;2023-11-18T11:54:06;7.53;;;4.50;;
33824;SDS011;20127;48.962;8.342;2023-11-18T11:57:15;6.47;;;4.28;;
33824;SDS011;20127;48.962;8.342;2023-11-18T12:00:17;6.93;;;4.60;;
33824;SDS011;20127;48.962;8.342;2023-11-18T12:03:21;4.88;;;4.38;;
33824;SDS011;20127;48.962;8.342;2023-11-18T12:06:23;8.68;;;6.93;;
33824;SDS011;20127;48.962;8.342;2023-11-18T12:09:30;6.18;;;4.72;;
33824;SDS011;20127;48.962;8.342;2023-11-18T12:12:37;5.88;;;3.78;;
33824;SDS011;20127;48.962;8.342;2023-11-18T12:15:48;9.63;;;4.35;;
33824;SDS011;20127;48.962;8.342;2023-11-18T12:22:25;6.50;;;4.35;;
33824;SDS011;20127;48.962;8.342;2023-11-18T12:25:31;6.47;;;4.15;;
33824;SDS011;20127;48.962;8.342;2023-11-18T12:28:36;7.57;;;5.57;;
33824;SDS011;20127;48.962;8.342;2023-11-18T12:31:45;7.47;;;4.65;;
33824;SDS011;20127;48.962;8.342;2023-11-18T12:34:50;7.88;;;3.67;;
33824;SDS011;20127;48.962;8.342;2023-11-18T12:38:08;7.15;;;4.00;;
33824;SDS011;20127;48.962;8.342;2023-11-18T12:41:34;5.40;;;3.88;;
33824;SDS011;20127;48.962;8.342;2023-11-18T12:44:38;5.82;;;4.38;;
33824;SDS011;20127;48.962;8.342;2023-11-18T12:47:53;7.63;;;3.92;;
33824;SDS011;20127;48.962;8.342;2023-11-18T12:50:58;5.80;;;3.60;;
33824;SDS011;20127;48.962;8.342;2023-11-18T12:54:00;5.18;;;3.80;;
33824;SDS011;20127;48.962;8.342;2023-11-18T12:57:08;4.68;;;3.20;;
33824;SDS011;20127;48.962;8.342;2023-11-18T13:00:11;4.68;;;4.03;;
33824;SDS011;20127;48.962;8.342;2023-11-18T13:03:17;6.03;;;3.40;;
33824;SDS011;20127;48.962;8.342;2023-11-18T13:06:20;5.50;;;4.93;;
33824;SDS011;20127;48.962;8.342;2023-11-18T13:09:28;9.93;;;3.30;;
33824;SDS011;20127;48.962;8.342;2023-11-18T13:12:33;3.33;;;3.03;;
33824;SDS011;20127;48.962;8.342;2023-11-18T13:15:36;10.15;;;4.22;;
33824;SDS011;20127;48.962;8.342;2023-11-18T13:18:41;5.38;;;4.05;;
33824;SDS011;20127;48.962;8.342;2023-11-18T13:21:44;4.88;;;4.35;;
33824;SDS011;20127;48.962;8.342;2023-11-18T13:24:46;10.65;;;5.15;;
33824;SDS011;20127;48.962;8.342;2023-11-18T13:27:51;6.53;;;5.20;;
33824;SDS011;20127;48.962;8.342;2023-11-18T13:30:54;6.65;;;4.30;;
33824;SDS011;20127;48.962;8.342;2023-11-18T13:33:56;6.93;;;4.10;;
33824;SDS011;20127;48.962;8.342;2023-11-18T13:36:58;5.28;;;4.60;;
33824;SDS011;20127;48.962;8.342;2023-11-18T13:40:01;6.35;;;4.40;;
33824;SDS011;20127;48.962;8.342;2023-11-18T13:43:07;10.20;;;5.78;;
33824;SDS011;20127;48.962;8.342;2023-11-18T13:46:12;5.22;;;4.60;;
33824;SDS011;20127;48.962;8.342;2023-11-18T13:49:14;5.00;;;3.88;;
33824;SDS011;20127;48.962;8.342;2023-11-18T13:52:16;5.57;;;3.13;;
33824;SDS011;20127;48.962;8.342;2023-11-18T13:55:18;5.85;;;3.85;;
33824;SDS011;20127;48.962;8.342;2023-11-18T13:58:27;5.70;;;3.85;;
33824;SDS011;20127;48.962;8.342;2023-11-18T14:01:29;5.95;;;4.50;;
33824;SDS011;20127;48.962;8.342;2023-11-18T14:04:33;6.80;;;3.40;;
33824;SDS011;20127;48.962;8.342;2023-11-18T14:07:37;4.72;;;3.85;;
33824;SDS011;20127;48.962;8.342;2023-11-18T14:10:39;6.00;;;3.35;;
33824;SDS011;20127;48.962;8.342;2023-11-18T14:13:42;6.25;;;3.35;;
33824;SDS011;20127;48.962;8.342;2023-11-18T14:16:44;7.85;;;4.30;;
33824;SDS011;20127;48.962;8.342;2023-11-18T14:19:46;9.02;;;4.93;;
33824;SDS011;20127;48.962;8.342;2023-11-18T14:22:47;4.55;;;4.15;;
33824;SDS011;20127;48.962;8.342;2023-11-18T14:25:49;9.40;;;5.15;;
33824;SDS011;20127;48.962;8.342;2023-11-18T14:28:53;4.65;;;3.40;;
33824;SDS011;20127;48.962;8.342;2023-11-18T14:31:55;5.55;;;3.90;;
33824;SDS011;20127;48.962;8.342;2023-11-18T14:34:57;7.13;;;3.58;;
33824;SDS011;20127;48.962;8.342;2023-11-18T14:37:59;5.07;;;3.65;;
33824;SDS011;20127;48.962;8.342;2023-11-18T14:41:01;5.78;;;3.53;;
33824;SDS011;20127;48.962;8.342;2023-11-18T14:44:06;6.65;;;3.22;;
33824;SDS011;20127;48.962;8.342;2023-11-18T14:47:09;11.60;;;3.33;;
33824;SDS011;20127;48.962;8.342;2023-11-18T14:50:12;6.68;;;2.95;;
33824;SDS011;20127;48.962;8.342;2023-11-18T14:53:17;6.88;;;3.85;;
33824;SDS011;20127;48.962;8.342;2023-11-18T14:56:19;6.55;;;3.75;;
33824;SDS011;20127;48.962;8.342;2023-11-18T14:59:23;5.68;;;4.43;;
33824;SDS011;20127;48.962;8.342;2023-11-18T15:02:24;6.78;;;4.22;;
33824;SDS011;20127;48.962;8.342;2023-11-18T15:05:26;5.82;;;3.38;;
33824;SDS011;20127;48.962;8.342;2023-11-18T15:08:29;5.88;;;4.20;;
33824;SDS011;20127;48.962;8.342;2023-11-18T15:11:31;5.38;;;3.45;;
33824;SDS011;20127;48.962;8.342;2023-11-18T15:14:35;4.28;;;3.78;;
33824;SDS011;20127;48.962;8.342;2023-11-18T15:17:36;5.55;;;3.53;;
33824;SDS011;20127;48.962;8.342;2023-11-18T15:20:39;8.40;;;5.43;;
33824;SDS011;20127;48.962;8.342;2023-11-18T15:23:42;22.95;;;13.25;;
33824;SDS011;20127;48.962;8.342;2023-11-18T15:26:45;7.72;;;6.40;;
33824;SDS011;20127;48.962;8.342;2023-11-18T15:29:48;5.95;;;3.35;;
33824;SDS011;20127;48.962;8.342;2023-11-18T15:32:50;4.40;;;3.78;;
33824;SDS011;20127;48.962;8.342;2023-11-18T15:35:52;7.65;;;6.15;;
33824;SDS011;20127;48.962;8.342;2023-11-18T15:38:54;14.50;;;10.15;;
33824;SDS011;20127;48.962;8.342;2023-11-18T15:42:03;8.43;;;7.70;;
33824;SDS011;20127;48.962;8.342;2023-11-18T15:45:10;8.70;;;5.40;;
33824;SDS011;20127;48.962;8.342;2023-11-18T15:48:12;7.03;;;6.32;;
33824;SDS011;20127;48.962;8.342;2023-11-18T15:51:14;13.05;;;7.07;;
33824;SDS011;20127;48.962;8.342;2023-11-18T15:54:16;9.77;;;6.68;;
33824;SDS011;20127;48.962;8.342;2023-11-18T15:57:18;9.77;;;7.30;;
33824;SDS011;20127;48.962;8.342;2023-11-18T16:00:23;7.28;;;5.25;;
33824;SDS011;20127;48.962;8.342;2023-11-18T16:03:26;6.63;;;5.75;;
33824;SDS011;20127;48.962;8.342;2023-11-18T16:06:28;10.52;;;4.43;;
33824;SDS011;20127;48.962;8.342;2023-11-18T16:09:31;12.85;;;7.55;;
33824;SDS011;20127;48.962;8.342;2023-11-18T16:12:35;13.13;;;6.43;;
33824;SDS011;20127;48.962;8.342;2023-11-18T16:15:38;7.80;;;5.95;;
33824;SDS011;20127;48.962;8.342;2023-11-18T16:18:41;10.65;;;5.97;;
33824;SDS011;20127;48.962;8.342;2023-11-18T16:21:43;7.15;;;4.65;;
33824;SDS011;20127;48.962;8.342;2023-11-18T16:24:46;7.50;;;5.30;;
33824;SDS011;20127;48.962;8.342;2023-11-18T16:27:50;9.30;;;4.93;;
33824;SDS011;20127;48.962;8.342;2023-11-18T16:30:53;12.00;;;5.13;;
33824;SDS011;20127;48.962;8.342;2023-11-18T16:33:55;5.95;;;5.38;;
33824;SDS011;20127;48.962;8.342;2023-11-18T16:36:57;11.45;;;6.72;;
33824;SDS011;20127;48.962;8.342;2023-11-18T16:40:00;9.75;;;4.78;;
33824;SDS011;20127;48.962;8.342;2023-11-18T16:43:01;9.20;;;6.00;;
33824;SDS011;20127;48.962;8.342;2023-11-18T16:46:07;6.60;;;5.50;;
33824;SDS011;20127;48.962;8.342;2023-11-18T16:49:11;8.15;;;6.03;;
33824;SDS011;20127;48.962;8.342;2023-11-18T16:52:16;8.25;;;5.75;;
33824;SDS011;20127;48.962;8.342;2023-11-18T16:55:18;8.05;;;5.75;;
33824;SDS011;20127;48.962;8.342;2023-11-18T16:58:20;8.93;;;5.88;;
33824;SDS011;20127;48.962;8.342;2023-11-18T17:01:24;15.10;;;5.45;;
33824;SDS011;20127;48.962;8.342;2023-11-18T17:04:25;6.60;;;6.00;;
33824;SDS011;20127;48.962;8.342;2023-11-18T17:07:27;5.72;;;4.50;;
33824;SDS011;20127;48.962;8.342;2023-11-18T17:10:29;11.05;;;6.30;;
33824;SDS011;20127;48.962;8.342;2023-11-18T17:13:31;6.28;;;5.20;;
33824;SDS011;20127;48.962;8.342;2023-11-18T17:16:34;9.30;;;7.20;;
33824;SDS011;20127;48.962;8.342;2023-11-18T17:19:36;10.80;;;7.88;;
33824;SDS011;20127;48.962;8.342;2023-11-18T17:22:38;11.68;;;8.30;;
33824;SDS011;20127;48.962;8.342;2023-11-18T17:25:42;16.20;;;8.18;;
33824;SDS011;20127;48.962;8.342;2023-11-18T17:28:43;11.25;;;9.65;;
33824;SDS011;20127;48.962;8.342;2023-11-18T17:31:47;13.57;;;9.32;;
33824;SDS011;20127;48.962;8.342;2023-11-18T17:34:49;10.43;;;9.23;;
33824;SDS011;20127;48.962;8.342;2023-11-18T17:37:50;8.75;;;7.38;;
33824;SDS011;20127;48.962;8.342;2023-11-18T17:40:52;15.27;;;8.60;;
33824;SDS011;20127;48.962;8.342;2023-11-18T17:43:57;16.50;;;8.57;;
33824;SDS011;20127;48.962;8.342;2023-11-18T17:47:00;10.90;;;7.32;;
33824;SDS011;20127;48.962;8.342;2023-11-18T17:50:02;12.85;;;6.80;;
33824;SDS011;20127;48.962;8.342;2023-11-18T17:53:08;15.07;;;9.07;;
33824;SDS011;20127;48.962;8.342;2023-11-18T17:56:11;11.68;;;9.80;;
33824;SDS011;20127;48.962;8.342;2023-11-18T17:59:14;9.73;;;8.73;;
33824;SDS011;20127;48.962;8.342;2023-11-18T18:02:17;12.13;;;8.68;;
33824;SDS011;20127;48.962;8.342;2023-11-18T18:05:19;18.08;;;14.00;;
33824;SDS011;20127;48.962;8.342;2023-11-18T18:08:21;19.15;;;14.38;;